sensor_id;sensor_type;location;lat;lon;timestamp;P1;durP1;ratioP1;P2;durP2;ratioP2
29576;SDS011;16509;53.862;10.672;2023-02-28T00:01:04;8.75;;;3.53;;
29576;SDS011;16509;53.862;10.672;2023-02-28T00:03:30;5.70;;;2.72;;
29576;SDS011;16509;53.862;10.672;2023-02-28T00:06:00;5.45;;;2.72;;
29576;SDS011;16509;53.862;10.672;2023-02-28T00:08:26;10.90;;;3.25;;
29576;SDS011;16509;53.862;10.672;2023-02-28T00:10:52;13.02;;;2.95;;
29576;SDS011;16509;53.862;10.672;2023-02-28T00:13:17;9.18;;;3.33;;
29576;SDS011;16509;53.862;10.672;2023-02-28T00:15:43;6.10;;;2.90;;
29576;SDS011;16509;53.862;10.672;2023-02-28T00:18:10;5.07;;;3.03;;
29576;SDS011;16509;53.862;10.672;2023-02-28T00:20:36;6.05;;;3.35;;
29576;SDS011;16509;53.862;10.672;2023-02-28T00:23:02;9.90;;;4.03;;
29576;SDS011;16509;53.862;10.672;2023-02-28T00:25:28;6.15;;;2.90;;
29576;SDS011;16509;53.862;10.672;2023-02-28T00:27:53;9.90;;;3.35;;
29576;SDS011;16509;53.862;10.672;2023-02-28T00:30:20;9.57;;;3.15;;
29576;SDS011;16509;53.862;10.672;2023-02-28T00:32:47;11.00;;;3.35;;
29576;SDS011;16509;53.862;10.672;2023-02-28T00:35:13;6.10;;;2.70;;
29576;SDS011;16509;53.862;10.672;2023-02-28T00:37:39;10.45;;;2.95;;
29576;SDS011;16509;53.862;10.672;2023-02-28T00:40:05;9.68;;;3.30;;
29576;SDS011;16509;53.862;10.672;2023-02-28T00:42:31;11.00;;;2.85;;
29576;SDS011;16509;53.862;10.672;2023-02-28T00:44:58;5.70;;;3.00;;
29576;SDS011;16509;53.862;10.672;2023-02-28T00:47:23;7.47;;;3.58;;
29576;SDS011;16509;53.862;10.672;2023-02-28T00:49:49;7.60;;;3.90;;
29576;SDS011;16509;53.862;10.672;2023-02-28T00:52:15;7.20;;;3.88;;
29576;SDS011;16509;53.862;10.672;2023-02-28T00:54:40;6.63;;;3.13;;
29576;SDS011;16509;53.862;10.672;2023-02-28T00:57:06;3.88;;;2.45;;
29576;SDS011;16509;53.862;10.672;2023-02-28T00:59:31;6.13;;;2.90;;
29576;SDS011;16509;53.862;10.672;2023-02-28T01:01:57;5.07;;;2.85;;
29576;SDS011;16509;53.862;10.672;2023-02-28T01:04:22;9.77;;;3.42;;
29576;SDS011;16509;53.862;10.672;2023-02-28T01:06:49;11.15;;;3.30;;
29576;SDS011;16509;53.862;10.672;2023-02-28T01:09:15;8.45;;;3.17;;
29576;SDS011;16509;53.862;10.672;2023-02-28T01:11:41;6.53;;;2.63;;
29576;SDS011;16509;53.862;10.672;2023-02-28T01:14:09;8.13;;;2.65;;
29576;SDS011;16509;53.862;10.672;2023-02-28T01:16:40;5.17;;;2.40;;
29576;SDS011;16509;53.862;10.672;2023-02-28T01:19:06;7.60;;;2.55;;
29576;SDS011;16509;53.862;10.672;2023-02-28T01:21:32;7.90;;;2.70;;
29576;SDS011;16509;53.862;10.672;2023-02-28T01:23:58;7.20;;;3.20;;
29576;SDS011;16509;53.862;10.672;2023-02-28T01:26:23;4.55;;;2.80;;
29576;SDS011;16509;53.862;10.672;2023-02-28T01:28:50;4.70;;;2.70;;
29576;SDS011;16509;53.862;10.672;2023-02-28T01:31:17;4.28;;;2.30;;
29576;SDS011;16509;53.862;10.672;2023-02-28T01:33:43;10.05;;;3.47;;
29576;SDS011;16509;53.862;10.672;2023-02-28T01:36:13;7.40;;;2.83;;
29576;SDS011;16509;53.862;10.672;2023-02-28T01:38:40;6.85;;;2.35;;
29576;SDS011;16509;53.862;10.672;2023-02-28T01:41:06;6.47;;;2.60;;
29576;SDS011;16509;53.862;10.672;2023-02-28T01:46:07;5.40;;;3.03;;
29576;SDS011;16509;53.862;10.672;2023-02-28T01:48:34;6.00;;;3.15;;
29576;SDS011;16509;53.862;10.672;2023-02-28T01:51:05;10.77;;;3.38;;
29576;SDS011;16509;53.862;10.672;2023-02-28T01:53:37;6.15;;;2.72;;
29576;SDS011;16509;53.862;10.672;2023-02-28T01:56:07;7.17;;;2.57;;
29576;SDS011;16509;53.862;10.672;2023-02-28T01:58:36;6.47;;;3.10;;
29576;SDS011;16509;53.862;10.672;2023-02-28T02:01:02;6.55;;;3.03;;
29576;SDS011;16509;53.862;10.672;2023-02-28T02:03:28;7.78;;;3.08;;
29576;SDS011;16509;53.862;10.672;2023-02-28T02:05:55;7.05;;;2.70;;
29576;SDS011;16509;53.862;10.672;2023-02-28T02:08:24;6.65;;;3.13;;
29576;SDS011;16509;53.862;10.672;2023-02-28T02:10:56;4.22;;;2.63;;
29576;SDS011;16509;53.862;10.672;2023-02-28T02:22:02;7.57;;;3.15;;
29576;SDS011;16509;53.862;10.672;2023-02-28T02:25:07;5.95;;;2.83;;
29576;SDS011;16509;53.862;10.672;2023-02-28T02:36:21;4.03;;;2.47;;
29576;SDS011;16509;53.862;10.672;2023-02-28T02:39:25;5.10;;;2.22;;
29576;SDS011;16509;53.862;10.672;2023-02-28T02:41:56;5.18;;;2.58;;
29576;SDS011;16509;53.862;10.672;2023-02-28T02:44:37;6.15;;;2.50;;
29576;SDS011;16509;53.862;10.672;2023-02-28T02:47:10;6.68;;;2.55;;
29576;SDS011;16509;53.862;10.672;2023-02-28T02:49:40;9.10;;;3.00;;
29576;SDS011;16509;53.862;10.672;2023-02-28T02:52:11;6.40;;;2.28;;
29576;SDS011;16509;53.862;10.672;2023-02-28T02:54:43;5.85;;;2.72;;
29576;SDS011;16509;53.862;10.672;2023-02-28T02:57:12;10.77;;;3.03;;
29576;SDS011;16509;53.862;10.672;2023-02-28T03:00:02;5.30;;;3.05;;
29576;SDS011;16509;53.862;10.672;2023-02-28T03:02:30;4.90;;;2.75;;
29576;SDS011;16509;53.862;10.672;2023-02-28T03:05:00;6.43;;;3.13;;
29576;SDS011;16509;53.862;10.672;2023-02-28T03:07:28;10.23;;;2.80;;
29576;SDS011;16509;53.862;10.672;2023-02-28T03:09:54;9.85;;;2.78;;
29576;SDS011;16509;53.862;10.672;2023-02-28T03:12:22;5.65;;;2.85;;
29576;SDS011;16509;53.862;10.672;2023-02-28T03:17:38;4.10;;;2.65;;
29576;SDS011;16509;53.862;10.672;2023-02-28T03:20:25;8.27;;;3.75;;
29576;SDS011;16509;53.862;10.672;2023-02-28T03:23:02;8.13;;;2.95;;
29576;SDS011;16509;53.862;10.672;2023-02-28T03:25:42;7.80;;;3.13;;
29576;SDS011;16509;53.862;10.672;2023-02-28T03:28:28;7.88;;;3.85;;
29576;SDS011;16509;53.862;10.672;2023-02-28T03:31:15;10.13;;;3.78;;
29576;SDS011;16509;53.862;10.672;2023-02-28T03:34:07;13.85;;;3.67;;
29576;SDS011;16509;53.862;10.672;2023-02-28T03:36:37;6.63;;;3.03;;
29576;SDS011;16509;53.862;10.672;2023-02-28T03:39:09;7.68;;;3.63;;
29576;SDS011;16509;53.862;10.672;2023-02-28T03:41:42;11.75;;;3.58;;
29576;SDS011;16509;53.862;10.672;2023-02-28T03:44:19;7.20;;;3.58;;
29576;SDS011;16509;53.862;10.672;2023-02-28T03:46:54;8.82;;;3.60;;
29576;SDS011;16509;53.862;10.672;2023-02-28T03:49:32;8.57;;;3.60;;
29576;SDS011;16509;53.862;10.672;2023-02-28T03:52:03;7.70;;;4.03;;
29576;SDS011;16509;53.862;10.672;2023-02-28T03:54:33;7.72;;;4.03;;
29576;SDS011;16509;53.862;10.672;2023-02-28T03:57:12;7.95;;;3.47;;
29576;SDS011;16509;53.862;10.672;2023-02-28T03:59:49;5.53;;;2.92;;
29576;SDS011;16509;53.862;10.672;2023-02-28T04:02:19;10.35;;;4.05;;
29576;SDS011;16509;53.862;10.672;2023-02-28T04:04:45;8.02;;;3.45;;
29576;SDS011;16509;53.862;10.672;2023-02-28T04:07:13;6.28;;;3.42;;
29576;SDS011;16509;53.862;10.672;2023-02-28T04:09:39;9.25;;;3.47;;
29576;SDS011;16509;53.862;10.672;2023-02-28T04:12:06;14.93;;;3.95;;
29576;SDS011;16509;53.862;10.672;2023-02-28T04:14:31;14.75;;;4.28;;
29576;SDS011;16509;53.862;10.672;2023-02-28T04:16:57;8.40;;;3.38;;
29576;SDS011;16509;53.862;10.672;2023-02-28T04:19:23;7.88;;;3.47;;
29576;SDS011;16509;53.862;10.672;2023-02-28T04:21:50;7.55;;;3.38;;
29576;SDS011;16509;53.862;10.672;2023-02-28T04:24:26;9.23;;;3.78;;
29576;SDS011;16509;53.862;10.672;2023-02-28T04:26:53;13.48;;;3.40;;
29576;SDS011;16509;53.862;10.672;2023-02-28T04:29:23;9.15;;;3.53;;
29576;SDS011;16509;53.862;10.672;2023-02-28T04:31:50;6.30;;;3.10;;
29576;SDS011;16509;53.862;10.672;2023-02-28T04:34:18;9.32;;;3.78;;
29576;SDS011;16509;53.862;10.672;2023-02-28T04:36:44;7.20;;;3.90;;
29576;SDS011;16509;53.862;10.672;2023-02-28T04:39:11;7.43;;;3.33;;
29576;SDS011;16509;53.862;10.672;2023-02-28T04:41:37;14.75;;;4.35;;
29576;SDS011;16509;53.862;10.672;2023-02-28T04:44:03;5.32;;;3.20;;
29576;SDS011;16509;53.862;10.672;2023-02-28T04:46:28;10.70;;;3.42;;
29576;SDS011;16509;53.862;10.672;2023-02-28T04:48:55;11.52;;;3.05;;
29576;SDS011;16509;53.862;10.672;2023-02-28T04:51:21;6.78;;;3.42;;
29576;SDS011;16509;53.862;10.672;2023-02-28T04:53:47;12.30;;;4.10;;
29576;SDS011;16509;53.862;10.672;2023-02-28T04:56:14;8.77;;;3.08;;
29576;SDS011;16509;53.862;10.672;2023-02-28T04:58:41;7.65;;;3.15;;
29576;SDS011;16509;53.862;10.672;2023-02-28T05:03:57;7.57;;;3.65;;
29576;SDS011;16509;53.862;10.672;2023-02-28T05:06:25;3.22;;;2.53;;
29576;SDS011;16509;53.862;10.672;2023-02-28T05:08:52;4.60;;;3.10;;
29576;SDS011;16509;53.862;10.672;2023-02-28T05:11:19;6.65;;;3.20;;
29576;SDS011;16509;53.862;10.672;2023-02-28T05:13:47;11.07;;;4.70;;
29576;SDS011;16509;53.862;10.672;2023-02-28T05:16:13;13.38;;;5.90;;
29576;SDS011;16509;53.862;10.672;2023-02-28T05:18:39;16.38;;;6.85;;
29576;SDS011;16509;53.862;10.672;2023-02-28T05:21:05;17.45;;;6.90;;
29576;SDS011;16509;53.862;10.672;2023-02-28T05:23:44;14.68;;;6.72;;
29576;SDS011;16509;53.862;10.672;2023-02-28T05:26:09;18.02;;;6.38;;
29576;SDS011;16509;53.862;10.672;2023-02-28T05:28:35;14.82;;;5.95;;
29576;SDS011;16509;53.862;10.672;2023-02-28T05:31:00;17.63;;;6.88;;
29576;SDS011;16509;53.862;10.672;2023-02-28T05:33:26;16.10;;;5.85;;
29576;SDS011;16509;53.862;10.672;2023-02-28T05:35:51;8.68;;;4.40;;
29576;SDS011;16509;53.862;10.672;2023-02-28T05:38:17;6.80;;;3.75;;
29576;SDS011;16509;53.862;10.672;2023-02-28T05:40:43;12.23;;;4.40;;
29576;SDS011;16509;53.862;10.672;2023-02-28T05:43:09;5.28;;;3.38;;
29576;SDS011;16509;53.862;10.672;2023-02-28T05:45:36;19.17;;;4.03;;
29576;SDS011;16509;53.862;10.672;2023-02-28T05:48:02;8.93;;;3.22;;
29576;SDS011;16509;53.862;10.672;2023-02-28T05:50:27;9.73;;;3.80;;
29576;SDS011;16509;53.862;10.672;2023-02-28T05:52:53;10.50;;;3.47;;
29576;SDS011;16509;53.862;10.672;2023-02-28T05:55:18;7.35;;;3.88;;
29576;SDS011;16509;53.862;10.672;2023-02-28T05:57:44;9.80;;;3.97;;
29576;SDS011;16509;53.862;10.672;2023-02-28T06:00:10;13.50;;;4.30;;
29576;SDS011;16509;53.862;10.672;2023-02-28T06:02:38;7.47;;;3.67;;
29576;SDS011;16509;53.862;10.672;2023-02-28T06:05:05;4.50;;;3.50;;
29576;SDS011;16509;53.862;10.672;2023-02-28T06:07:34;12.77;;;4.18;;
29576;SDS011;16509;53.862;10.672;2023-02-28T06:10:00;6.18;;;3.65;;
29576;SDS011;16509;53.862;10.672;2023-02-28T06:12:25;10.82;;;5.03;;
29576;SDS011;16509;53.862;10.672;2023-02-28T06:14:51;7.45;;;4.35;;
29576;SDS011;16509;53.862;10.672;2023-02-28T06:17:17;7.32;;;4.18;;
29576;SDS011;16509;53.862;10.672;2023-02-28T06:19:42;7.03;;;3.28;;
29576;SDS011;16509;53.862;10.672;2023-02-28T06:22:08;6.30;;;3.13;;
29576;SDS011;16509;53.862;10.672;2023-02-28T06:24:34;9.48;;;3.55;;
29576;SDS011;16509;53.862;10.672;2023-02-28T06:26:59;13.93;;;4.05;;
29576;SDS011;16509;53.862;10.672;2023-02-28T06:29:30;11.48;;;3.63;;
29576;SDS011;16509;53.862;10.672;2023-02-28T06:31:57;6.57;;;3.30;;
29576;SDS011;16509;53.862;10.672;2023-02-28T06:34:23;9.23;;;4.10;;
29576;SDS011;16509;53.862;10.672;2023-02-28T06:36:49;8.20;;;3.22;;
29576;SDS011;16509;53.862;10.672;2023-02-28T06:39:16;8.95;;;4.00;;
29576;SDS011;16509;53.862;10.672;2023-02-28T06:41:42;5.45;;;3.67;;
29576;SDS011;16509;53.862;10.672;2023-02-28T06:44:20;11.40;;;3.33;;
29576;SDS011;16509;53.862;10.672;2023-02-28T06:46:46;11.40;;;3.67;;
29576;SDS011;16509;53.862;10.672;2023-02-28T06:49:11;8.40;;;4.45;;
29576;SDS011;16509;53.862;10.672;2023-02-28T06:51:41;9.07;;;4.80;;
29576;SDS011;16509;53.862;10.672;2023-02-28T06:54:10;7.32;;;3.90;;
29576;SDS011;16509;53.862;10.672;2023-02-28T06:56:36;10.07;;;3.65;;
29576;SDS011;16509;53.862;10.672;2023-02-28T06:59:02;15.73;;;4.70;;
29576;SDS011;16509;53.862;10.672;2023-02-28T07:01:28;8.93;;;3.90;;
29576;SDS011;16509;53.862;10.672;2023-02-28T07:03:54;13.27;;;4.15;;
29576;SDS011;16509;53.862;10.672;2023-02-28T07:06:20;11.80;;;4.90;;
29576;SDS011;16509;53.862;10.672;2023-02-28T07:08:50;7.85;;;4.13;;
29576;SDS011;16509;53.862;10.672;2023-02-28T07:11:20;12.98;;;5.43;;
29576;SDS011;16509;53.862;10.672;2023-02-28T07:13:51;8.00;;;4.53;;
29576;SDS011;16509;53.862;10.672;2023-02-28T07:16:17;12.68;;;3.95;;
29576;SDS011;16509;53.862;10.672;2023-02-28T07:18:43;12.55;;;4.05;;
29576;SDS011;16509;53.862;10.672;2023-02-28T07:21:09;11.55;;;4.60;;
29576;SDS011;16509;53.862;10.672;2023-02-28T07:23:36;16.25;;;6.63;;
29576;SDS011;16509;53.862;10.672;2023-02-28T07:26:05;8.43;;;4.93;;
29576;SDS011;16509;53.862;10.672;2023-02-28T07:28:32;8.77;;;4.00;;
29576;SDS011;16509;53.862;10.672;2023-02-28T07:31:02;12.02;;;3.83;;
29576;SDS011;16509;53.862;10.672;2023-02-28T07:33:29;9.43;;;3.70;;
29576;SDS011;16509;53.862;10.672;2023-02-28T07:36:00;16.42;;;4.82;;
29576;SDS011;16509;53.862;10.672;2023-02-28T07:38:40;8.63;;;4.78;;
29576;SDS011;16509;53.862;10.672;2023-02-28T07:41:08;13.85;;;4.47;;
29576;SDS011;16509;53.862;10.672;2023-02-28T07:43:34;12.68;;;4.40;;
29576;SDS011;16509;53.862;10.672;2023-02-28T07:46:04;10.20;;;4.30;;
29576;SDS011;16509;53.862;10.672;2023-02-28T07:48:31;8.02;;;4.60;;
29576;SDS011;16509;53.862;10.672;2023-02-28T07:50:57;8.35;;;4.55;;
29576;SDS011;16509;53.862;10.672;2023-02-28T07:53:24;10.43;;;4.30;;
29576;SDS011;16509;53.862;10.672;2023-02-28T07:55:50;11.27;;;5.18;;
29576;SDS011;16509;53.862;10.672;2023-02-28T07:58:19;10.98;;;5.00;;
29576;SDS011;16509;53.862;10.672;2023-02-28T08:00:44;17.55;;;5.65;;
29576;SDS011;16509;53.862;10.672;2023-02-28T08:03:13;12.52;;;4.57;;
29576;SDS011;16509;53.862;10.672;2023-02-28T08:05:39;13.95;;;4.53;;
29576;SDS011;16509;53.862;10.672;2023-02-28T08:08:05;12.00;;;4.18;;
29576;SDS011;16509;53.862;10.672;2023-02-28T08:10:31;8.40;;;3.97;;
29576;SDS011;16509;53.862;10.672;2023-02-28T08:12:57;7.00;;;4.38;;
29576;SDS011;16509;53.862;10.672;2023-02-28T08:15:22;12.63;;;4.43;;
29576;SDS011;16509;53.862;10.672;2023-02-28T08:17:48;11.88;;;4.72;;
29576;SDS011;16509;53.862;10.672;2023-02-28T08:20:14;6.38;;;3.80;;
29576;SDS011;16509;53.862;10.672;2023-02-28T08:22:39;9.00;;;3.65;;
29576;SDS011;16509;53.862;10.672;2023-02-28T08:25:05;9.68;;;3.88;;
29576;SDS011;16509;53.862;10.672;2023-02-28T08:27:32;13.32;;;4.50;;
29576;SDS011;16509;53.862;10.672;2023-02-28T08:29:57;9.80;;;4.07;;
29576;SDS011;16509;53.862;10.672;2023-02-28T08:32:23;10.07;;;4.20;;
29576;SDS011;16509;53.862;10.672;2023-02-28T08:34:48;9.07;;;3.40;;
29576;SDS011;16509;53.862;10.672;2023-02-28T08:37:14;11.07;;;3.80;;
29576;SDS011;16509;53.862;10.672;2023-02-28T08:39:40;12.90;;;3.47;;
29576;SDS011;16509;53.862;10.672;2023-02-28T08:42:06;9.45;;;3.95;;
29576;SDS011;16509;53.862;10.672;2023-02-28T08:44:31;8.18;;;3.38;;
29576;SDS011;16509;53.862;10.672;2023-02-28T08:46:57;9.88;;;4.00;;
29576;SDS011;16509;53.862;10.672;2023-02-28T08:49:23;10.90;;;4.22;;
29576;SDS011;16509;53.862;10.672;2023-02-28T08:51:48;9.60;;;3.78;;
29576;SDS011;16509;53.862;10.672;2023-02-28T08:54:14;10.38;;;4.43;;
29576;SDS011;16509;53.862;10.672;2023-02-28T08:56:44;6.70;;;3.50;;
29576;SDS011;16509;53.862;10.672;2023-02-28T08:59:12;8.07;;;3.70;;
29576;SDS011;16509;53.862;10.672;2023-02-28T09:01:38;15.02;;;4.68;;
29576;SDS011;16509;53.862;10.672;2023-02-28T09:04:04;8.70;;;3.63;;
29576;SDS011;16509;53.862;10.672;2023-02-28T09:06:31;8.57;;;3.97;;
29576;SDS011;16509;53.862;10.672;2023-02-28T09:08:57;7.25;;;4.03;;
29576;SDS011;16509;53.862;10.672;2023-02-28T09:11:24;12.55;;;3.47;;
29576;SDS011;16509;53.862;10.672;2023-02-28T09:13:50;9.02;;;3.30;;
29576;SDS011;16509;53.862;10.672;2023-02-28T09:16:16;8.32;;;4.88;;
29576;SDS011;16509;53.862;10.672;2023-02-28T09:18:42;6.30;;;3.38;;
29576;SDS011;16509;53.862;10.672;2023-02-28T09:21:12;10.43;;;3.72;;
29576;SDS011;16509;53.862;10.672;2023-02-28T09:23:43;10.48;;;3.53;;
29576;SDS011;16509;53.862;10.672;2023-02-28T09:26:16;10.63;;;4.18;;
29576;SDS011;16509;53.862;10.672;2023-02-28T09:28:44;6.45;;;3.20;;
29576;SDS011;16509;53.862;10.672;2023-02-28T09:31:12;7.57;;;3.47;;
29576;SDS011;16509;53.862;10.672;2023-02-28T09:33:49;9.00;;;3.45;;
29576;SDS011;16509;53.862;10.672;2023-02-28T09:36:16;7.00;;;3.28;;
29576;SDS011;16509;53.862;10.672;2023-02-28T09:38:42;11.75;;;3.60;;
29576;SDS011;16509;53.862;10.672;2023-02-28T09:41:13;7.32;;;3.30;;
29576;SDS011;16509;53.862;10.672;2023-02-28T09:43:45;9.05;;;3.53;;
29576;SDS011;16509;53.862;10.672;2023-02-28T09:46:18;9.75;;;3.90;;
29576;SDS011;16509;53.862;10.672;2023-02-28T09:48:56;10.57;;;3.77;;
29576;SDS011;16509;53.862;10.672;2023-02-28T09:53:48;8.20;;;3.17;;
29576;SDS011;16509;53.862;10.672;2023-02-28T09:56:25;6.75;;;3.00;;
29576;SDS011;16509;53.862;10.672;2023-02-28T09:59:01;9.70;;;3.15;;
29576;SDS011;16509;53.862;10.672;2023-02-28T10:07:16;5.68;;;2.83;;
29576;SDS011;16509;53.862;10.672;2023-02-28T10:09:43;5.03;;;2.88;;
29576;SDS011;16509;53.862;10.672;2023-02-28T10:12:15;6.30;;;2.60;;
29576;SDS011;16509;53.862;10.672;2023-02-28T10:14:43;7.50;;;1.98;;
29576;SDS011;16509;53.862;10.672;2023-02-28T10:17:17;5.40;;;2.33;;
29576;SDS011;16509;53.862;10.672;2023-02-28T10:25:44;6.47;;;2.63;;
29576;SDS011;16509;53.862;10.672;2023-02-28T10:28:18;6.85;;;2.95;;
29576;SDS011;16509;53.862;10.672;2023-02-28T10:30:45;5.85;;;3.15;;
29576;SDS011;16509;53.862;10.672;2023-02-28T10:35:53;5.03;;;2.00;;
29576;SDS011;16509;53.862;10.672;2023-02-28T10:38:22;6.32;;;2.38;;
29576;SDS011;16509;53.862;10.672;2023-02-28T10:41:03;3.83;;;2.30;;
29576;SDS011;16509;53.862;10.672;2023-02-28T10:43:28;1.88;;;1.58;;
29576;SDS011;16509;53.862;10.672;2023-02-28T10:45:58;5.07;;;2.00;;
29576;SDS011;16509;53.862;10.672;2023-02-28T10:48:26;5.50;;;2.45;;
29576;SDS011;16509;53.862;10.672;2023-02-28T10:50:55;4.53;;;2.58;;
29576;SDS011;16509;53.862;10.672;2023-02-28T11:00:58;3.47;;;1.60;;
29576;SDS011;16509;53.862;10.672;2023-02-28T11:03:25;4.05;;;1.88;;
29576;SDS011;16509;53.862;10.672;2023-02-28T11:05:55;2.95;;;2.00;;
29576;SDS011;16509;53.862;10.672;2023-02-28T11:08:21;2.45;;;1.70;;
29576;SDS011;16509;53.862;10.672;2023-02-28T11:10:48;3.35;;;1.92;;
29576;SDS011;16509;53.862;10.672;2023-02-28T11:13:20;6.80;;;1.70;;
29576;SDS011;16509;53.862;10.672;2023-02-28T11:15:59;6.38;;;2.10;;
29576;SDS011;16509;53.862;10.672;2023-02-28T11:18:46;2.70;;;1.67;;
29576;SDS011;16509;53.862;10.672;2023-02-28T11:21:15;2.95;;;1.52;;
29576;SDS011;16509;53.862;10.672;2023-02-28T11:23:44;5.38;;;1.77;;
29576;SDS011;16509;53.862;10.672;2023-02-28T11:26:10;4.13;;;1.80;;
29576;SDS011;16509;53.862;10.672;2023-02-28T11:28:37;4.60;;;1.85;;
29576;SDS011;16509;53.862;10.672;2023-02-28T11:33:47;5.13;;;1.92;;
29576;SDS011;16509;53.862;10.672;2023-02-28T11:38:46;4.05;;;1.75;;
29576;SDS011;16509;53.862;10.672;2023-02-28T11:46:45;3.47;;;1.63;;
29576;SDS011;16509;53.862;10.672;2023-02-28T11:52:20;4.47;;;2.05;;
29576;SDS011;16509;53.862;10.672;2023-02-28T11:58:35;2.67;;;1.70;;
29576;SDS011;16509;53.862;10.672;2023-02-28T12:12:04;3.38;;;1.77;;
29576;SDS011;16509;53.862;10.672;2023-02-28T12:18:18;4.30;;;1.80;;
29576;SDS011;16509;53.862;10.672;2023-02-28T12:29:01;7.97;;;1.95;;
29576;SDS011;16509;53.862;10.672;2023-02-28T12:31:49;5.20;;;1.60;;
29576;SDS011;16509;53.862;10.672;2023-02-28T12:34:20;4.30;;;1.90;;
29576;SDS011;16509;53.862;10.672;2023-02-28T12:37:13;2.13;;;1.60;;
29576;SDS011;16509;53.862;10.672;2023-02-28T12:39:45;4.20;;;1.70;;
29576;SDS011;16509;53.862;10.672;2023-02-28T12:42:17;9.95;;;2.97;;
29576;SDS011;16509;53.862;10.672;2023-02-28T12:44:54;8.25;;;2.25;;
29576;SDS011;16509;53.862;10.672;2023-02-28T12:47:24;3.08;;;1.73;;
29576;SDS011;16509;53.862;10.672;2023-02-28T12:49:52;5.75;;;2.10;;
29576;SDS011;16509;53.862;10.672;2023-02-28T12:52:25;5.05;;;1.83;;
29576;SDS011;16509;53.862;10.672;2023-02-28T12:55:08;5.55;;;1.90;;
29576;SDS011;16509;53.862;10.672;2023-02-28T12:57:50;3.10;;;1.60;;
29576;SDS011;16509;53.862;10.672;2023-02-28T13:00:25;5.25;;;2.08;;
29576;SDS011;16509;53.862;10.672;2023-02-28T13:14:05;7.68;;;2.00;;
29576;SDS011;16509;53.862;10.672;2023-02-28T13:19:24;6.55;;;2.10;;
29576;SDS011;16509;53.862;10.672;2023-02-28T13:21:52;3.10;;;1.77;;
29576;SDS011;16509;53.862;10.672;2023-02-28T13:29:37;5.00;;;1.70;;
29576;SDS011;16509;53.862;10.672;2023-02-28T13:34:36;4.00;;;1.50;;
29576;SDS011;16509;53.862;10.672;2023-02-28T13:37:48;9.52;;;2.30;;
29576;SDS011;16509;53.862;10.672;2023-02-28T13:39:58;6.70;;;1.90;;
29576;SDS011;16509;53.862;10.672;2023-02-28T13:42:48;5.53;;;1.95;;
29576;SDS011;16509;53.862;10.672;2023-02-28T13:45:22;9.27;;;3.25;;
29576;SDS011;16509;53.862;10.672;2023-02-28T13:47:56;5.28;;;2.28;;
29576;SDS011;16509;53.862;10.672;2023-02-28T13:50:27;7.20;;;2.10;;
29576;SDS011;16509;53.862;10.672;2023-02-28T14:12:27;6.10;;;2.72;;
29576;SDS011;16509;53.862;10.672;2023-02-28T14:15:02;12.95;;;1.90;;
29576;SDS011;16509;53.862;10.672;2023-02-28T14:17:28;3.55;;;1.73;;
29576;SDS011;16509;53.862;10.672;2023-02-28T14:19:54;11.30;;;2.55;;
29576;SDS011;16509;53.862;10.672;2023-02-28T14:25:11;5.88;;;1.83;;
29576;SDS011;16509;53.862;10.672;2023-02-28T14:28:03;4.97;;;2.25;;
29576;SDS011;16509;53.862;10.672;2023-02-28T14:36:26;4.00;;;1.65;;
29576;SDS011;16509;53.862;10.672;2023-02-28T14:38:57;4.47;;;1.65;;
29576;SDS011;16509;53.862;10.672;2023-02-28T14:41:31;2.70;;;1.85;;
29576;SDS011;16509;53.862;10.672;2023-02-28T14:44:00;3.97;;;1.48;;
29576;SDS011;16509;53.862;10.672;2023-02-28T14:46:34;5.55;;;2.40;;
29576;SDS011;16509;53.862;10.672;2023-02-28T14:49:03;2.67;;;1.60;;
29576;SDS011;16509;53.862;10.672;2023-02-28T14:51:32;3.03;;;1.48;;
29576;SDS011;16509;53.862;10.672;2023-02-28T14:53:59;3.75;;;1.55;;
29576;SDS011;16509;53.862;10.672;2023-02-28T14:56:34;3.95;;;1.50;;
29576;SDS011;16509;53.862;10.672;2023-02-28T14:59:02;3.45;;;1.80;;
29576;SDS011;16509;53.862;10.672;2023-02-28T15:01:28;2.95;;;1.52;;
29576;SDS011;16509;53.862;10.672;2023-02-28T15:04:05;3.72;;;1.55;;
29576;SDS011;16509;53.862;10.672;2023-02-28T15:06:40;4.97;;;1.38;;
29576;SDS011;16509;53.862;10.672;2023-02-28T15:09:49;1.40;;;1.00;;
29576;SDS011;16509;53.862;10.672;2023-02-28T15:11:58;3.28;;;1.20;;
29576;SDS011;16509;53.862;10.672;2023-02-28T15:14:23;3.05;;;1.73;;
29576;SDS011;16509;53.862;10.672;2023-02-28T15:16:55;7.50;;;2.72;;
29576;SDS011;16509;53.862;10.672;2023-02-28T15:19:36;5.78;;;1.55;;
29576;SDS011;16509;53.862;10.672;2023-02-28T15:22:17;3.92;;;1.52;;
29576;SDS011;16509;53.862;10.672;2023-02-28T15:24:54;6.38;;;1.40;;
29576;SDS011;16509;53.862;10.672;2023-02-28T15:27:25;2.67;;;1.20;;
29576;SDS011;16509;53.862;10.672;2023-02-28T15:29:55;1.80;;;1.50;;
29576;SDS011;16509;53.862;10.672;2023-02-28T15:32:30;1.75;;;1.17;;
29576;SDS011;16509;53.862;10.672;2023-02-28T15:34:58;4.75;;;1.75;;
29576;SDS011;16509;53.862;10.672;2023-02-28T15:37:50;2.97;;;1.60;;
29576;SDS011;16509;53.862;10.672;2023-02-28T15:40:51;2.75;;;1.55;;
29576;SDS011;16509;53.862;10.672;2023-02-28T15:43:31;3.90;;;2.22;;
29576;SDS011;16509;53.862;10.672;2023-02-28T15:46:02;4.15;;;2.53;;
29576;SDS011;16509;53.862;10.672;2023-02-28T15:48:32;12.07;;;3.85;;
29576;SDS011;16509;53.862;10.672;2023-02-28T15:51:23;7.03;;;2.17;;
29576;SDS011;16509;53.862;10.672;2023-02-28T15:53:56;2.97;;;1.50;;
29576;SDS011;16509;53.862;10.672;2023-02-28T15:56:33;2.10;;;1.38;;
29576;SDS011;16509;53.862;10.672;2023-02-28T15:59:05;3.30;;;1.80;;
29576;SDS011;16509;53.862;10.672;2023-02-28T16:01:33;3.40;;;1.83;;
29576;SDS011;16509;53.862;10.672;2023-02-28T16:04:01;5.00;;;1.60;;
29576;SDS011;16509;53.862;10.672;2023-02-28T16:06:36;2.85;;;1.85;;
29576;SDS011;16509;53.862;10.672;2023-02-28T16:09:03;6.30;;;1.80;;
29576;SDS011;16509;53.862;10.672;2023-02-28T16:11:33;2.92;;;1.52;;
29576;SDS011;16509;53.862;10.672;2023-02-28T16:14:01;3.25;;;1.60;;
29576;SDS011;16509;53.862;10.672;2023-02-28T16:16:28;2.47;;;1.30;;
29576;SDS011;16509;53.862;10.672;2023-02-28T16:18:53;3.17;;;1.65;;
29576;SDS011;16509;53.862;10.672;2023-02-28T16:21:19;5.55;;;2.03;;
29576;SDS011;16509;53.862;10.672;2023-02-28T16:23:45;2.95;;;1.90;;
29576;SDS011;16509;53.862;10.672;2023-02-28T16:26:21;5.85;;;1.60;;
29576;SDS011;16509;53.862;10.672;2023-02-28T16:28:49;3.50;;;2.00;;
29576;SDS011;16509;53.862;10.672;2023-02-28T16:31:16;3.70;;;1.95;;
29576;SDS011;16509;53.862;10.672;2023-02-28T16:33:44;5.63;;;1.73;;
29576;SDS011;16509;53.862;10.672;2023-02-28T16:36:21;4.55;;;2.25;;
29576;SDS011;16509;53.862;10.672;2023-02-28T16:38:50;3.42;;;2.00;;
29576;SDS011;16509;53.862;10.672;2023-02-28T16:41:19;4.68;;;2.13;;
29576;SDS011;16509;53.862;10.672;2023-02-28T16:43:47;3.90;;;2.55;;
29576;SDS011;16509;53.862;10.672;2023-02-28T16:46:16;5.38;;;1.98;;
29576;SDS011;16509;53.862;10.672;2023-02-28T16:48:43;3.33;;;2.00;;
29576;SDS011;16509;53.862;10.672;2023-02-28T16:51:13;5.25;;;1.75;;
29576;SDS011;16509;53.862;10.672;2023-02-28T16:53:40;2.95;;;1.70;;
29576;SDS011;16509;53.862;10.672;2023-02-28T16:56:06;1.92;;;1.63;;
29576;SDS011;16509;53.862;10.672;2023-02-28T16:58:38;3.10;;;2.25;;
29576;SDS011;16509;53.862;10.672;2023-02-28T17:01:04;4.80;;;2.13;;
29576;SDS011;16509;53.862;10.672;2023-02-28T17:03:29;4.25;;;2.35;;
29576;SDS011;16509;53.862;10.672;2023-02-28T17:05:55;3.97;;;2.10;;